Time;durP1;ratioP1;P1;durP2;ratioP2;P2;SDS_P1;SDS_P2;PMS_P1;PMS_P2;Temp;Humidity;BMP_temperature;BMP_pressure;BME280_temperature;BME280_humidity;BME280_pressure;Samples;Min_cycle;Max_cycle;Signal;HPM_P1;HPM_P2
2022/06/28 00:02:16;;;;;;;3.93;3.67;;;20.30;78.50;;;23.13;56.67;101878.22;5075625;28;20295;-66
2022/06/28 00:04:45;;;;;;;4.17;3.87;;;20.30;78.30;;;23.21;56.61;101880.56;5076297;28;20267;-66
2022/06/28 00:07:13;;;;;;;3.60;3.30;;;20.40;78.10;;;23.28;56.28;101878.59;5076163;28;20186;-66
2022/06/28 00:09:40;;;;;;;3.63;3.17;;;20.40;77.90;;;23.34;56.03;101888.44;5085003;28;20189;-68
2022/06/28 00:12:09;;;;;;;5.37;4.47;;;20.50;77.80;;;23.41;55.69;101886.50;5096583;28;20208;-67
2022/06/28 00:17:22;;;;;;;5.43;4.77;;;20.50;77.00;;;23.45;55.42;101888.50;5096712;28;20192;-66
2022/06/28 00:19:51;;;;;;;5.13;4.63;;;20.60;76.80;;;23.44;55.53;101891.41;5096994;28;20185;-66
2022/06/28 00:22:19;;;;;;;5.60;5.00;;;20.50;76.70;;;23.41;55.34;101889.19;5096048;28;20212;-66
2022/06/28 00:24:46;;;;;;;5.60;5.10;;;20.60;76.70;;;23.36;55.47;101894.44;5096033;28;20245;-66
2022/06/28 00:27:14;;;;;;;7.30;5.20;;;20.50;76.70;;;23.30;55.41;101890.75;5096160;28;20185;-66
2022/06/28 00:29:41;;;;;;;5.97;5.43;;;20.50;76.70;;;23.26;55.87;101883.41;5095955;28;20188;-68
2022/06/28 00:32:08;;;;;;;8.07;6.40;;;20.50;76.90;;;23.21;55.73;101881.41;5096394;28;20205;-67
2022/06/28 00:34:36;;;;;;;6.90;6.40;;;20.50;77.10;;;23.13;55.86;101897.03;5096511;28;20524;-65
2022/06/28 00:37:05;;;;;;;7.27;6.60;;;20.40;77.00;;;23.06;56.09;101888.25;5095959;28;20196;-67
2022/06/28 00:39:32;;;;;;;6.93;6.33;;;20.40;77.50;;;22.97;56.33;101890.44;5096132;28;20193;-66
2022/06/28 00:42:00;;;;;;;7.57;6.87;;;20.30;77.60;;;22.91;56.51;101902.09;5095495;28;20208;-66
2022/06/28 00:44:29;;;;;;;7.37;6.67;;;20.20;77.80;;;22.86;56.51;101900.09;5096038;28;20199;-67
2022/06/28 00:46:57;;;;;;;7.67;7.03;;;20.20;78.10;;;22.83;56.72;101905.91;5095898;28;20189;-66
2022/06/28 00:49:25;;;;;;;7.87;6.53;;;20.10;78.20;;;22.81;56.84;101902.63;5095430;28;20666;-66
2022/06/28 00:51:56;;;;;;;7.80;7.10;;;20.10;78.50;;;22.78;57.11;101908.44;5095026;28;20298;-66
2022/06/28 00:54:25;;;;;;;8.70;7.00;;;20.10;78.70;;;22.75;57.17;101908.88;5095771;28;20523;-66
2022/06/28 00:56:52;;;;;;;7.30;6.60;;;20.00;79.50;;;22.74;57.12;101915.31;5094930;28;20193;-66
2022/06/28 00:59:20;;;;;;;6.60;6.00;;;20.00;78.70;;;22.74;57.25;101923.38;5095490;28;20203;-66
2022/06/28 01:01:47;;;;;;;7.53;6.77;;;20.00;78.80;;;22.72;57.17;101936.22;5095010;28;20209;-65
2022/06/28 01:04:15;;;;;;;8.73;6.90;;;20.00;78.60;;;22.69;56.83;101950.06;5095153;28;20199;-65
2022/06/28 01:06:43;;;;;;;7.37;6.67;;;19.90;78.20;;;22.63;56.95;101953.66;5095388;28;20197;-67
2022/06/28 01:09:10;;;;;;;6.57;5.97;;;19.90;78.00;;;22.57;56.90;101957.19;5095579;28;20189;-66
2022/06/28 01:11:39;;;;;;;7.80;6.97;;;19.90;77.80;;;22.51;56.86;101955.41;5094480;28;20227;-65
2022/06/28 01:14:08;;;;;;;6.97;6.33;;;19.80;77.70;;;22.45;56.84;101961.66;5110405;28;20587;-66
2022/06/28 01:16:38;;;;;;;6.43;5.83;;;19.80;77.70;;;22.40;56.74;101958.81;5095128;28;20196;-66
2022/06/28 01:19:07;;;;;;;8.57;6.30;;;19.70;77.80;;;22.37;56.83;101966.53;5095048;28;20193;-67
2022/06/28 01:21:36;;;;;;;6.20;5.80;;;19.70;77.70;;;22.35;56.79;101965.88;5095057;28;20655;-66
2022/06/28 01:24:07;;;;;;;7.27;6.67;;;19.70;77.80;;;22.34;56.76;101965.09;5094954;28;20258;-67
2022/06/28 01:26:35;;;;;;;6.67;6.00;;;19.60;77.70;;;22.34;56.71;101975.00;5116635;28;20255;-65
2022/06/28 01:29:03;;;;;;;6.87;6.13;;;19.60;77.60;;;22.35;56.97;101982.00;5098743;28;20658;-66
2022/06/28 01:31:32;;;;;;;8.17;5.43;;;19.60;78.00;;;22.36;56.47;101979.09;5094531;28;20217;-66
2022/06/28 01:34:01;;;;;;;6.80;6.03;;;19.60;77.80;;;22.43;56.76;101985.22;5095857;28;20189;-66
2022/06/28 01:36:29;;;;;;;6.50;5.20;;;19.60;77.80;;;22.44;56.23;101978.81;5094886;28;20227;-66
2022/06/28 01:38:57;;;;;;;6.37;5.87;;;19.60;77.20;;;22.43;56.09;101984.41;5094861;28;20527;-66
2022/06/28 01:41:35;;;;;;;5.47;5.03;;;19.60;76.70;;;22.40;56.09;101984.84;5094306;28;20212;-66
2022/06/28 01:44:06;;;;;;;5.43;5.03;;;19.60;76.30;;;22.34;55.92;101983.06;5094524;28;20208;-66
2022/06/28 01:46:38;;;;;;;6.13;5.50;;;19.60;76.20;;;22.32;55.96;101983.28;5094170;28;20621;-66
2022/06/28 01:49:07;;;;;;;5.70;5.27;;;19.60;76.30;;;22.32;55.53;101988.66;5094733;28;20196;-66
2022/06/28 01:51:34;;;;;;;7.07;6.37;;;19.50;75.90;;;22.30;55.42;101988.03;5093637;28;20219;-67
2022/06/28 01:54:02;;;;;;;6.13;5.53;;;19.50;75.80;;;22.27;55.19;101985.81;5094141;28;20666;-67
2022/06/28 01:56:32;;;;;;;6.37;5.13;;;19.50;75.70;;;22.22;55.10;101982.97;5094224;28;20263;-67
2022/06/28 01:58:59;;;;;;;6.00;5.37;;;19.50;75.70;;;22.20;55.06;101974.31;5094329;28;20185;-67
2022/06/28 02:01:26;;;;;;;6.10;5.60;;;19.50;75.70;;;22.16;55.33;101978.47;5092770;28;20209;-67
2022/06/28 02:03:54;;;;;;;5.20;4.80;;;19.40;75.60;;;22.13;55.37;101970.88;5094504;28;20199;-67
2022/06/28 02:06:21;;;;;;;6.30;5.50;;;19.40;75.80;;;22.11;55.52;101970.25;5094546;28;20188;-66
2022/06/28 02:08:49;;;;;;;6.67;5.30;;;19.40;75.90;;;22.06;55.37;101983.53;5094334;28;20196;-66
2022/06/28 02:11:16;;;;;;;7.97;7.17;;;19.40;76.10;;;22.03;55.43;101986.63;5093601;28;20220;-66
2022/06/28 02:13:45;;;;;;;6.73;6.13;;;19.40;76.20;;;21.99;55.83;101982.72;5094108;28;20188;-66
2022/06/28 02:16:12;;;;;;;7.60;6.80;;;19.30;76.20;;;21.92;56.02;101982.78;5109894;28;20196;-67
2022/06/28 02:18:40;;;;;;;7.77;6.87;;;19.30;76.40;;;21.87;56.03;101984.50;5093412;28;20184;-66
2022/06/28 02:21:07;;;;;;;7.60;6.73;;;19.20;76.40;;;21.83;56.25;101980.56;5093127;28;20204;-66
2022/06/28 02:23:35;;;;;;;7.67;6.83;;;19.20;76.80;;;21.78;56.52;101980.38;5093853;28;20195;-66
2022/06/28 02:26:02;;;;;;;8.37;7.07;;;19.10;76.90;;;21.72;56.22;101986.63;5094015;28;20202;-66
2022/06/28 02:28:30;;;;;;;7.43;6.67;;;19.10;76.90;;;21.66;56.52;101996.34;5094098;28;20192;-66
2022/06/28 02:30:59;;;;;;;7.80;7.03;;;19.00;77.20;;;21.60;56.27;101989.19;5093542;28;20698;-66
2022/06/28 02:33:26;;;;;;;8.53;6.30;;;19.00;77.40;;;21.54;56.51;101985.50;5094521;28;20545;-66
2022/06/28 02:41:25;;;;;;;8.03;7.37;;;18.80;78.00;;;21.42;57.37;101987.22;5093403;28;20215;-66
2022/06/28 02:43:52;;;;;;;12.57;8.10;;;18.80;78.20;;;21.38;57.67;101980.66;5093947;28;20199;-65
2022/06/28 02:46:21;;;;;;;9.87;7.63;;;18.80;78.30;;;21.36;57.60;101985.44;5093903;28;20281;-67
2022/06/28 02:48:49;;;;;;;7.33;6.40;;;18.70;78.40;;;21.34;58.11;101990.19;5093485;28;20200;-67
2022/06/28 02:51:16;;;;;;;8.47;7.70;;;18.70;78.90;;;21.35;57.60;101994.47;5092669;28;20220;-67
2022/06/28 02:53:44;;;;;;;9.00;8.20;;;18.70;78.90;;;21.36;58.09;101989.94;5093994;28;20192;-66
2022/06/28 02:56:11;;;;;;;10.23;8.70;;;18.70;79.10;;;21.35;58.17;101997.16;5093883;28;20542;-66
2022/06/28 02:58:38;;;;;;;9.50;8.53;;;18.70;79.10;;;21.34;58.22;101995.53;5093700;28;20219;-67
2022/06/28 03:01:06;;;;;;;10.60;9.17;;;18.70;79.20;;;21.30;57.81;101991.63;5092827;28;20207;-67
2022/06/28 03:03:35;;;;;;;9.33;8.43;;;18.70;79.50;;;21.25;57.99;101990.66;5093392;28;20254;-67
2022/06/28 03:06:03;;;;;;;10.47;9.47;;;18.60;79.40;;;21.20;58.07;101990.47;5092949;28;20196;-67
2022/06/28 03:08:30;;;;;;;11.23;9.90;;;18.60;79.40;;;21.15;58.72;101996.47;5093676;28;20189;-66
2022/06/28 03:10:58;;;;;;;15.57;10.97;;;18.60;79.80;;;21.08;58.71;102006.38;5092730;28;20211;-67
2022/06/28 03:13:25;;;;;;;10.40;9.50;;;18.50;79.70;;;21.03;58.48;102003.47;5128843;27;20216;-68
2022/06/28 03:15:53;;;;;;;12.03;10.07;;;18.40;79.90;;;21.01;59.12;102010.91;5097364;28;20194;-67
2022/06/28 03:18:20;;;;;;;11.37;10.27;;;18.40;80.10;;;20.98;59.29;102005.13;5097161;28;20271;-67
2022/06/28 03:20:49;;;;;;;15.10;11.87;;;18.40;80.30;;;20.96;59.06;102010.72;5129610;27;20189;-67
2022/06/28 03:23:16;;;;;;;13.60;10.23;;;18.30;80.40;;;20.93;59.32;102009.28;5096848;28;20192;-67
2022/06/28 03:25:44;;;;;;;12.23;11.10;;;18.30;80.40;;;20.93;58.93;102000.41;5097014;28;20199;-67
2022/06/28 03:28:11;;;;;;;14.23;12.73;;;18.30;80.70;;;20.94;59.53;102015.47;5096946;28;20533;-68
2022/06/28 03:30:38;;;;;;;14.87;13.27;;;18.30;80.80;;;20.94;59.56;102015.47;5096459;28;20192;-67
2022/06/28 03:33:06;;;;;;;14.60;13.20;;;18.20;80.80;;;20.93;59.03;102013.81;5096609;28;20192;-67
2022/06/28 03:35:34;;;;;;;16.17;14.67;;;18.30;80.80;;;20.92;59.10;102012.16;5095828;28;20202;-68
2022/06/28 03:38:02;;;;;;;14.50;13.30;;;18.30;80.80;;;20.92;59.36;102012.16;5096929;28;20195;-66
2022/06/28 03:40:30;;;;;;;16.27;14.57;;;18.20;80.90;;;20.92;59.56;102012.97;5094739;28;20223;-68
2022/06/28 03:42:57;;;;;;;15.73;13.57;;;18.20;81.00;;;20.91;58.94;102010.53;5096606;28;20196;-67
2022/06/28 03:45:24;;;;;;;15.47;13.97;;;18.20;80.80;;;20.89;58.99;102017.94;5096633;28;20620;-66
2022/06/28 03:47:52;;;;;;;15.13;13.53;;;18.20;80.90;;;20.89;58.98;102016.06;5096802;28;20184;-67
2022/06/28 03:50:20;;;;;;;17.40;15.70;;;18.20;80.80;;;20.87;59.03;102026.16;5096091;28;20687;-69
2022/06/28 03:52:47;;;;;;;15.53;14.03;;;18.20;80.90;;;20.85;58.93;102025.56;5096115;28;20624;-66
2022/06/28 03:55:16;;;;;;;16.80;15.20;;;18.20;81.00;;;20.84;59.01;102037.31;5095990;28;20666;-67
2022/06/28 03:57:43;;;;;;;17.77;16.07;;;18.20;81.10;;;20.84;59.47;102031.13;5096421;28;20192;-68
2022/06/28 04:00:13;;;;;;;15.47;13.97;;;18.20;81.20;;;20.84;59.63;102036.50;5096404;28;20711;-66
2022/06/28 04:02:41;;;;;;;19.53;17.43;;;18.10;81.10;;;20.81;59.71;102036.91;5096087;28;20227;-66
2022/06/28 04:05:09;;;;;;;18.60;16.70;;;18.20;81.30;;;20.79;59.63;102038.97;5095405;28;20211;-67
2022/06/28 04:07:43;;;;;;;18.63;16.70;;;18.10;81.10;;;20.78;59.75;102042.66;5096472;28;20257;-68
2022/06/28 04:10:10;;;;;;;16.67;14.57;;;18.10;81.00;;;20.76;59.22;102048.25;5096276;28;20189;-66
2022/06/28 04:12:39;;;;;;;15.90;14.30;;;18.10;81.00;;;20.74;59.82;102052.16;5095380;28;20216;-67
2022/06/28 04:15:08;;;;;;;20.60;18.70;;;18.10;81.30;;;20.71;60.36;102063.25;5096438;28;20572;-66
2022/06/28 04:17:35;;;;;;;18.67;16.90;;;18.10;81.50;;;20.70;60.37;102064.31;5096609;28;20181;-66
2022/06/28 04:20:03;;;;;;;17.50;15.80;;;18.10;81.30;;;20.70;60.25;102062.47;5095910;28;20193;-67
2022/06/28 04:22:31;;;;;;;15.80;14.20;;;18.20;81.50;;;20.75;60.28;102069.88;5095478;28;20200;-67
2022/06/28 04:24:58;;;;;;;18.97;17.00;;;18.20;81.50;;;20.75;59.88;102068.00;5095263;28;20185;-66
2022/06/28 04:27:25;;;;;;;19.20;16.50;;;18.20;81.10;;;20.74;59.92;102079.75;5095387;28;20215;-65
2022/06/28 04:29:54;;;;;;;18.40;16.60;;;18.20;80.80;;;20.72;59.94;102080.97;5094452;28;20193;-67
2022/06/28 04:32:21;;;;;;;17.60;16.00;;;18.20;80.70;;;20.72;59.90;102080.97;5095414;28;20295;-66
2022/06/28 04:34:55;;;;;;;16.00;14.60;;;18.20;80.90;;;20.73;59.27;102082.59;5096073;28;20197;-66
2022/06/28 04:37:23;;;;;;;18.50;16.80;;;18.10;80.70;;;20.75;59.77;102091.28;5095321;28;20184;-66
2022/06/28 04:39:51;;;;;;;17.43;15.90;;;18.10;80.60;;;20.72;59.59;102099.72;5095930;28;20200;-67
2022/06/28 04:42:18;;;;;;;18.93;16.87;;;18.20;80.60;;;20.56;59.99;102097.47;5096200;28;20235;-66
2022/06/28 04:44:46;;;;;;;17.80;16.17;;;18.10;80.20;;;20.48;59.83;102092.31;5095011;28;20250;-66
2022/06/28 04:47:15;;;;;;;19.43;17.73;;;18.10;80.40;;;20.42;59.91;102095.84;5095111;28;20184;-66
2022/06/28 04:49:43;;;;;;;21.07;18.17;;;18.00;80.60;;;20.36;59.86;102101.97;5095566;28;20196;-67
2022/06/28 04:52:10;;;;;;;18.43;16.67;;;18.00;80.40;;;20.35;59.88;102095.00;5095893;28;20257;-67
2022/06/28 04:54:37;;;;;;;17.50;15.60;;;17.90;80.40;;;20.34;59.86;102099.53;5100603;28;20652;-66
2022/06/28 04:57:05;;;;;;;20.37;18.13;;;17.90;80.50;;;20.32;59.98;102108.78;5095260;28;20518;-67
2022/06/28 04:59:32;;;;;;;19.13;17.23;;;17.90;80.50;;;20.21;60.21;102105.66;5094401;28;20193;-67
2022/06/28 05:02:00;;;;;;;16.67;15.10;;;17.90;80.50;;;20.11;60.41;102115.13;5094457;28;20204;-66
2022/06/28 05:04:29;;;;;;;16.70;15.00;;;17.80;80.00;;;20.15;60.37;102106.47;5094857;28;20199;-68
2022/06/28 05:06:56;;;;;;;15.03;13.50;;;17.80;80.60;;;20.22;60.17;102110.00;5094677;28;20196;-67
2022/06/28 05:09:23;;;;;;;16.80;14.23;;;17.80;80.60;;;20.36;59.94;102107.34;5095067;28;20188;-68
2022/06/28 05:12:07;;;;;;;16.03;14.37;;;17.80;81.10;;;20.50;60.09;102114.34;5093909;28;20222;-67
2022/06/28 05:14:35;;;;;;;15.20;12.53;;;17.90;81.00;;;20.61;59.75;102108.38;5094350;28;20189;-67
2022/06/28 05:17:04;;;;;;;14.30;12.50;;;18.00;81.00;;;20.73;59.26;102114.72;5094601;28;20207;-67
2022/06/28 05:19:33;;;;;;;12.63;11.43;;;18.00;80.40;;;20.83;59.12;102109.78;5094752;28;20196;-68
2022/06/28 05:22:01;;;;;;;15.10;13.57;;;18.10;80.20;;;20.93;58.46;102108.34;5094071;28;20207;-68
2022/06/28 05:24:29;;;;;;;15.37;13.80;;;18.20;80.00;;;20.98;58.21;102105.03;5094203;28;20196;-65
2022/06/28 05:26:56;;;;;;;15.77;14.07;;;18.30;79.30;;;21.04;57.66;102096.16;5094580;28;20184;-67
2022/06/28 05:29:23;;;;;;;14.67;13.27;;;18.30;78.90;;;21.08;57.87;102104.63;5094285;28;20662;-67
2022/06/28 05:31:51;;;;;;;15.57;14.07;;;18.40;78.50;;;21.12;57.76;102108.53;5093646;28;20208;-67
2022/06/28 05:34:18;;;;;;;14.53;12.20;;;18.40;78.30;;;21.17;57.26;102104.19;5094350;28;20242;-67
2022/06/28 05:36:47;;;;;;;13.00;11.80;;;18.40;78.40;;;21.25;57.51;102095.91;5093433;28;20199;-67
2022/06/28 05:39:15;;;;;;;16.07;14.43;;;18.50;78.40;;;21.33;56.66;102094.84;5094036;28;20188;-67
2022/06/28 05:41:44;;;;;;;14.30;12.40;;;18.50;77.80;;;21.33;56.54;102092.19;5093161;28;20208;-69
2022/06/28 05:44:13;;;;;;;13.87;12.40;;;18.60;77.40;;;21.37;56.38;102091.53;5094214;28;20744;-68
2022/06/28 05:46:40;;;;;;;14.70;13.20;;;18.70;77.10;;;21.45;56.10;102088.63;5094212;28;20181;-66
2022/06/28 05:49:08;;;;;;;13.10;11.70;;;18.70;77.10;;;21.52;56.73;102086.75;5093600;28;20197;-67
2022/06/28 05:51:37;;;;;;;14.03;12.57;;;18.80;77.10;;;21.59;55.95;102090.22;5093174;28;20244;-67
2022/06/28 05:54:06;;;;;;;12.37;11.10;;;18.80;77.30;;;21.65;55.82;102093.06;5093595;28;20299;-66
2022/06/28 05:56:35;;;;;;;12.27;10.87;;;18.80;75.90;;;21.68;55.46;102098.03;5093698;28;20576;-67
2022/06/28 05:59:04;;;;;;;12.83;10.53;;;18.90;75.70;;;21.74;54.88;102091.78;5096779;28;20188;-67
2022/06/28 06:01:32;;;;;;;13.17;11.83;;;18.90;75.60;;;21.78;55.07;102083.09;5091827;28;20581;-67
2022/06/28 06:04:00;;;;;;;11.80;10.60;;;19.00;75.40;;;21.82;54.64;102083.50;5093227;28;20257;-67
2022/06/28 06:06:27;;;;;;;14.27;11.00;;;19.00;75.00;;;21.87;54.42;102081.03;5093214;28;20199;-67
2022/06/28 06:08:54;;;;;;;12.53;10.67;;;19.00;74.80;;;21.93;54.60;102078.31;5094133;28;20199;-66
2022/06/28 06:11:23;;;;;;;12.87;11.57;;;19.10;74.90;;;22.03;54.37;102075.13;5092958;28;20315;-68
2022/06/28 06:13:52;;;;;;;13.03;11.23;;;19.20;74.80;;;22.11;54.11;102080.22;5092692;28;20223;-67
2022/06/28 06:16:19;;;;;;;10.80;9.70;;;19.20;74.10;;;22.16;53.75;102077.72;5091612;28;20204;-68
2022/06/28 06:18:47;;;;;;;16.30;10.47;;;19.30;74.00;;;22.21;53.74;102084.06;5093301;28;20189;-67
2022/06/28 06:21:14;;;;;;;12.27;10.67;;;19.40;73.60;;;22.27;53.34;102082.41;5091951;28;20238;-67
2022/06/28 06:23:42;;;;;;;13.30;10.43;;;19.40;73.30;;;22.30;52.92;102081.94;5092505;28;20199;-67
2022/06/28 06:26:09;;;;;;;12.77;11.47;;;19.50;73.60;;;22.33;52.86;102086.03;5093589;28;20200;-67
2022/06/28 06:28:38;;;;;;;10.60;9.47;;;19.50;72.10;;;22.34;52.49;102077.78;5093644;28;20192;-67
2022/06/28 06:31:07;;;;;;;12.83;8.53;;;19.60;71.50;;;22.37;52.34;102077.34;5092982;28;20212;-67
2022/06/28 06:33:35;;;;;;;12.27;10.73;;;19.60;71.70;;;22.43;51.99;102087.22;5093457;28;20311;-67
2022/06/28 06:36:05;;;;;;;12.03;9.33;;;19.60;71.30;;;22.52;52.28;102085.88;5093042;28;20196;-67
2022/06/28 06:38:32;;;;;;;11.37;9.53;;;19.70;71.60;;;22.60;51.56;102084.78;5093254;28;20199;-67
2022/06/28 06:41:00;;;;;;;9.83;8.50;;;19.80;70.60;;;22.67;51.42;102078.34;5091692;28;20284;-68
2022/06/28 06:43:29;;;;;;;9.00;8.03;;;19.80;70.40;;;22.77;51.03;102080.53;5093087;28;20267;-67
2022/06/28 06:45:58;;;;;;;9.70;8.10;;;19.90;70.00;;;22.86;50.95;102077.34;5091564;28;20654;-67
2022/06/28 06:48:26;;;;;;;8.87;7.00;;;20.00;70.00;;;22.99;50.86;102080.94;5092483;28;20195;-67
2022/06/28 06:50:53;;;;;;;10.87;7.47;;;20.10;69.90;;;23.11;50.68;102079.09;5092025;28;20307;-67
2022/06/28 06:53:21;;;;;;;9.10;6.43;;;20.20;69.60;;;23.22;50.33;102086.44;5093760;28;20219;-67
2022/06/28 06:55:49;;;;;;;7.67;6.43;;;20.30;69.30;;;23.30;49.85;102086.13;5094128;28;20545;-68
2022/06/28 06:58:16;;;;;;;10.80;6.70;;;20.40;68.40;;;23.36;49.62;102087.94;5093058;28;20646;-68
2022/06/28 07:00:44;;;;;;;9.63;7.00;;;20.50;68.00;;;23.42;49.22;102084.34;5092022;28;20196;-68
2022/06/28 07:03:13;;;;;;;10.10;6.73;;;20.50;67.60;;;23.48;49.20;102086.97;5093354;28;20192;-68
2022/06/28 07:05:40;;;;;;;7.07;5.67;;;20.60;67.50;;;23.56;49.25;102088.50;5092796;28;20199;-67
2022/06/28 07:08:08;;;;;;;6.10;5.50;;;20.70;67.60;;;23.67;49.21;102085.06;5092651;28;20195;-66
2022/06/28 07:10:36;;;;;;;6.10;5.13;;;20.70;67.50;;;23.80;48.47;102084.88;5092823;28;20189;-67
2022/06/28 07:13:03;;;;;;;8.13;5.20;;;20.80;66.30;;;23.88;47.47;102092.63;5093019;28;20207;-66
2022/06/28 07:15:31;;;;;;;5.60;4.50;;;20.90;65.60;;;23.96;47.50;102084.22;5092132;28;20212;-68
2022/06/28 07:18:06;;;;;;;4.77;4.20;;;21.00;65.70;;;24.08;47.61;102092.38;5093479;28;20184;-67
2022/06/28 07:20:36;;;;;;;7.70;4.90;;;21.10;65.80;;;24.20;47.65;102096.69;5093329;28;20261;-67
2022/06/28 07:23:03;;;;;;;5.07;4.60;;;21.20;64.90;;;24.27;46.64;102085.81;5092643;28;20267;-67
2022/06/28 07:25:31;;;;;;;5.97;4.53;;;21.30;64.00;;;24.37;46.88;102079.88;5092568;28;20268;-67
2022/06/28 07:27:59;;;;;;;4.87;4.37;;;21.40;64.00;;;24.48;46.44;102082.59;5095005;28;20195;-66
2022/06/28 07:30:26;;;;;;;4.70;4.17;;;21.50;63.80;;;24.57;46.12;102091.13;5093639;28;20274;-66
2022/06/28 07:32:54;;;;;;;7.23;4.37;;;21.60;63.00;;;24.63;45.36;102091.00;5092955;28;20226;-66
2022/06/28 07:35:24;;;;;;;8.97;5.20;;;21.60;62.00;;;24.71;44.77;102087.16;5094030;28;20476;-66
2022/06/28 07:37:53;;;;;;;6.13;4.17;;;21.70;62.10;;;24.78;44.77;102088.72;5092211;28;20242;-68
2022/06/28 07:40:21;;;;;;;5.43;3.87;;;21.80;61.10;;;24.81;44.82;102095.50;5096183;28;20200;-68
2022/06/28 07:42:49;;;;;;;6.93;4.03;;;21.90;61.00;;;24.83;44.11;102096.09;5096251;28;20223;-68
2022/06/28 07:45:16;;;;;;;7.10;4.40;;;21.90;60.60;;;24.91;44.00;102103.00;5092241;28;20189;-66
2022/06/28 07:47:47;;;;;;;5.67;4.40;;;22.00;60.50;;;24.94;43.24;102097.13;5092689;28;20253;-66
2022/06/28 07:53:06;;;;;;;5.60;4.00;;;22.10;59.40;;;24.99;42.93;102100.75;5092562;28;20293;-68
2022/06/28 07:55:34;;;;;;;6.07;4.73;;;22.20;58.70;;;25.11;42.75;102106.94;5093262;28;20211;-68
2022/06/28 07:58:01;;;;;;;4.77;3.40;;;22.30;58.50;;;25.18;43.30;102107.63;5094263;28;20217;-67
2022/06/28 08:00:29;;;;;;;6.53;4.67;;;22.40;58.80;;;25.27;42.40;102113.50;5094492;28;20198;-67
2022/06/28 08:02:56;;;;;;;9.50;6.07;;;22.40;58.30;;;25.33;41.93;102105.25;5096108;28;20664;-67
2022/06/28 08:05:24;;;;;;;7.33;6.10;;;22.50;57.70;;;25.42;42.24;102111.91;5095380;28;20295;-67
2022/06/28 08:07:51;;;;;;;7.80;5.73;;;22.60;57.20;;;25.46;41.25;102102.31;5095295;28;20268;-67
2022/06/28 08:10:20;;;;;;;6.10;5.27;;;22.60;56.80;;;25.57;41.94;102110.59;5095218;28;20200;-67
2022/06/28 08:12:48;;;;;;;7.20;6.30;;;22.70;57.00;;;25.63;41.00;102123.13;5095705;28;20361;-68
2022/06/28 08:15:15;;;;;;;6.80;5.43;;;22.70;56.80;;;25.72;41.24;102116.31;5095823;28;20211;-68
2022/06/28 08:17:42;;;;;;;6.60;5.50;;;22.80;56.90;;;25.76;41.12;102114.75;5096840;28;20195;-67
2022/06/28 08:20:10;;;;;;;7.27;6.57;;;22.80;57.00;;;25.81;41.66;102112.97;5094690;28;20192;-67
2022/06/28 08:22:38;;;;;;;8.17;7.20;;;22.80;56.80;;;25.94;41.33;102114.53;5094664;28;20701;-67
2022/06/28 08:25:08;;;;;;;21.20;19.07;;;22.90;56.90;;;26.01;40.84;102121.44;5096015;28;20193;-67
2022/06/28 08:27:37;;;;;;;9.10;8.20;;;22.90;56.90;;;26.03;40.57;102123.91;5095530;28;20551;-67
2022/06/28 08:30:06;;;;;;;8.60;7.80;;;22.90;56.40;;;26.02;40.61;102127.66;5095466;28;20193;-66
2022/06/28 08:32:34;;;;;;;8.13;7.33;;;23.00;56.60;;;26.51;40.78;102126.91;5095196;28;20208;-68
2022/06/28 08:35:02;;;;;;;9.13;8.33;;;23.10;57.30;;;26.95;40.18;102113.53;5095232;28;20280;-68
2022/06/28 08:37:29;;;;;;;9.10;8.30;;;23.30;57.10;;;27.22;39.31;102114.44;5095022;28;20192;-68
2022/06/28 08:39:57;;;;;;;9.33;8.53;;;23.50;56.20;;;27.31;39.25;102116.47;5096037;28;20678;-68
2022/06/28 08:42:27;;;;;;;10.30;9.13;;;23.70;55.80;;;27.26;39.09;102129.09;5095472;28;20681;-68
2022/06/28 08:45:01;;;;;;;9.27;8.13;;;23.80;55.60;;;27.10;39.13;102119.16;5095019;28;20191;-68
2022/06/28 08:47:33;;;;;;;9.03;8.13;;;23.90;54.90;;;27.68;39.04;102121.22;5095332;28;20189;-66
2022/06/28 08:50:06;;;;;;;8.13;7.33;;;23.90;55.00;;;28.41;37.62;102113.28;5094860;28;20196;-66
2022/06/28 08:52:38;;;;;;;9.10;8.30;;;24.20;55.00;;;29.84;35.67;102111.88;5094379;28;20216;-67
2022/06/28 08:55:08;;;;;;;8.30;7.50;;;24.60;55.00;;;30.76;33.71;102110.81;5094991;28;20192;-67
2022/06/28 08:57:43;;;;;;;8.37;7.57;;;25.20;53.30;;;31.60;33.16;102110.78;5093829;28;20285;-67
2022/06/28 09:00:13;;;;;;;7.83;6.90;;;25.80;51.70;;;31.67;32.49;102108.56;5095073;28;20203;-67
2022/06/28 09:02:41;;;;;;;8.20;7.50;;;26.30;50.00;;;31.29;32.00;102106.56;5109724;28;20330;-67
2022/06/28 09:05:11;;;;;;;8.50;7.80;;;26.60;48.00;;;31.28;31.50;102108.47;5095224;28;20258;-67
2022/06/28 09:07:39;;;;;;;7.57;6.70;;;26.80;47.40;;;31.28;32.26;102102.22;5094497;28;20278;-67
2022/06/28 09:10:07;;;;;;;7.00;6.40;;;26.90;47.40;;;32.10;30.56;102099.56;5094166;28;20219;-67
2022/06/28 09:13:06;;;;;;;7.63;6.83;;;27.10;47.50;;;32.76;29.73;102101.66;5093757;28;20216;-66
2022/06/28 09:15:50;;;;;;;8.33;7.43;;;27.50;46.00;;;32.73;29.37;102102.28;5094943;28;20192;-67
2022/06/28 09:18:20;;;;;;;8.40;7.53;;;27.80;45.10;;;32.54;29.37;102093.19;5093405;28;20203;-67
2022/06/28 09:20:52;;;;;;;9.10;7.67;;;27.90;44.60;;;32.26;29.96;102092.03;5094171;28;20193;-67
2022/06/28 09:23:22;;;;;;;7.43;6.73;;;28.00;44.00;;;32.66;29.55;102096.34;5094939;28;20177;-67
2022/06/28 09:25:51;;;;;;;6.27;5.67;;;28.10;43.80;;;32.51;29.42;102099.22;5094037;28;20192;-67
2022/06/28 09:28:28;;;;;;;7.90;6.60;;;28.10;43.20;;;32.44;29.38;102088.63;5093981;28;20189;-67
2022/06/28 09:31:21;;;;;;;6.77;6.17;;;28.20;42.00;;;33.57;28.53;102090.59;5092920;27;20314;-68
2022/06/28 09:34:04;;;;;;;7.10;6.07;;;28.30;42.00;;;34.83;26.80;102095.88;5093195;28;20200;-68
2022/06/28 09:36:34;;;;;;;6.20;5.57;;;28.70;42.00;;;35.60;25.65;102091.22;5094085;28;20659;-67
2022/06/28 09:39:11;;;;;;;5.20;4.77;;;29.20;41.60;;;35.61;25.68;102084.63;5087172;28;20662;-67
2022/06/28 09:41:44;;;;;;;6.33;5.83;;;29.60;39.70;;;35.06;25.70;102081.19;5091612;28;20315;-67
2022/06/28 09:44:32;;;;;;;6.33;5.70;;;29.80;38.90;;;34.36;26.20;102073.19;5101112;28;20267;-67
2022/06/28 09:47:05;;;;;;;6.00;5.40;;;29.70;38.20;;;33.83;26.58;102077.34;5095456;28;20206;-67
2022/06/28 09:49:37;;;;;;;5.60;5.10;;;29.60;38.30;;;33.21;27.09;102082.03;5092543;28;20300;-66
2022/06/28 09:52:07;;;;;;;6.07;5.53;;;29.30;38.00;;;32.75;28.07;102072.78;5090487;28;20216;-66
2022/06/28 09:54:41;;;;;;;5.07;4.57;;;29.10;38.40;;;33.25;27.32;102072.19;5102405;28;20294;-68
2022/06/28 09:57:12;;;;;;;4.53;4.13;;;28.90;38.70;;;34.72;24.96;102073.34;5088945;28;20198;-67
2022/06/28 09:59:41;;;;;;;4.20;3.80;;;29.00;37.60;;;35.87;24.78;102067.25;5089552;28;20193;-67
2022/06/28 10:02:17;;;;;;;3.83;3.53;;;29.40;38.60;;;35.75;24.38;102069.75;5090160;27;20273;-68
2022/06/28 10:04:46;;;;;;;3.80;3.53;;;29.80;37.70;;;35.04;25.05;102072.47;5092123;28;20508;-67
2022/06/28 10:07:14;;;;;;;4.53;3.67;;;30.00;36.30;;;35.49;24.74;102071.47;5098558;28;20688;-67
2022/06/28 10:09:42;;;;;;;4.80;3.38;;;30.10;36.60;;;36.48;22.05;102071.22;5105661;28;20222;-66
2022/06/28 10:15:02;;;;;;;3.77;3.37;;;30.60;31.60;;;37.00;21.11;102066.72;5091630;28;20277;-66
2022/06/28 10:17:47;;;;;;;36.13;32.10;;;30.90;32.20;;;37.78;20.79;102071.16;5105597;28;20203;-65
2022/06/28 10:20:21;;;;;;;4.25;3.80;;;31.30;32.60;;;38.92;20.50;102080.38;5079373;28;20188;-67
2022/06/28 10:22:49;;;;;;;3.15;2.85;;;31.70;33.20;;;39.43;18.40;102071.81;5093296;28;20218;-65
2022/06/28 10:25:24;;;;;;;3.00;2.67;;;32.10;30.50;;;38.76;19.41;102073.84;5106017;28;20268;-66
2022/06/28 10:27:53;;;;;;;5.43;2.97;;;32.50;30.20;;;37.69;20.42;102068.41;5091919;28;20272;-66
2022/06/28 10:30:29;;;;;;;2.72;2.40;;;32.50;30.00;;;36.80;21.40;102068.09;5095663;28;20203;-67